Time;durP1;ratioP1;P1;durP2;ratioP2;P2;SDS_P1;SDS_P2;PMS_P1;PMS_P2;Temp;Humidity;BMP_temperature;BMP_pressure;BME280_temperature;BME280_humidity;BME280_pressure;Samples;Min_cycle;Max_cycle;Signal;HPM_P1;HPM_P2
2022/01/30 00:02:17;;;;;;;0.50;0.50;;;;;;;;;;5072789;28;20538;-66
2022/01/30 00:04:43;;;;;;;0.50;0.50;;;;;;;;;;5072227;28;20429;-66
2022/01/30 00:07:09;;;;;;;0.50;0.50;;;;;;;;;;5071263;28;20196;-66
2022/01/30 00:09:35;;;;;;;0.50;0.50;;;;;;;;;;5072083;28;20475;-66
2022/01/30 00:12:04;;;;;;;0.50;0.50;;;;;;;;;;5072673;28;20224;-66
2022/01/30 00:14:35;;;;;;;0.50;0.50;;;;;;;;;;5072129;28;20178;-65
2022/01/30 00:17:08;;;;;;;0.50;0.50;;;;;;;;;;5072573;28;20594;-67
2022/01/30 00:19:40;;;;;;;0.50;0.50;;;;;;;;;;5067088;28;20198;-65
2022/01/30 00:22:23;;;;;;;0.45;0.45;;;;;;;;;;5072009;28;20619;-66
2022/01/30 00:24:54;;;;;;;0.50;0.50;;;;;;;;;;5071833;28;20188;-65
2022/01/30 00:27:28;;;;;;;0.50;0.50;;;;;;;;;;5068990;28;20218;-66
2022/01/30 00:29:54;;;;;;;0.40;0.40;;;;;;;;;;5061847;28;20222;-68
2022/01/30 00:32:20;;;;;;;0.40;0.40;;;;;;;;;;5045481;28;20206;-66
2022/01/30 00:34:46;;;;;;;0.50;0.50;;;;;;;;;;5067372;28;20202;-66
2022/01/30 00:37:12;;;;;;;0.50;0.50;;;;;;;;;;5071519;28;20560;-66
2022/01/30 00:39:38;;;;;;;0.40;0.40;;;;;;;;;;5064238;28;20455;-66
2022/01/30 00:42:04;;;;;;;0.50;0.50;;;;;;;;;;5047302;28;20565;-66
2022/01/30 00:44:30;;;;;;;0.60;0.60;;;;;;;;;;5071173;28;20435;-66
2022/01/30 00:46:58;;;;;;;0.50;0.50;;;;;;;;;;5053245;28;20341;-67
2022/01/30 00:49:24;;;;;;;0.50;0.50;;;;;;;;;;5071479;28;20428;-66
2022/01/30 00:51:50;;;;;;;0.50;0.50;;;;;;;;;;5071166;28;20257;-65
2022/01/30 00:54:16;;;;;;;0.50;0.50;;;;;;;;;;5071433;28;20412;-66
2022/01/30 00:56:42;;;;;;;0.47;0.47;;;;;;;;;;5059926;28;20559;-65
2022/01/30 00:59:08;;;;;;;0.40;0.40;;;;;;;;;;5071778;28;20425;-65
2022/01/30 01:01:34;;;;;;;0.50;0.50;;;;;;;;;;5071415;28;20166;-66
2022/01/30 01:04:00;;;;;;;0.60;0.60;;;;;;;;;;5071570;28;20231;-66
2022/01/30 01:06:26;;;;;;;0.55;0.55;;;;;;;;;;5071478;28;20170;-66
2022/01/30 01:08:57;;;;;;;0.50;0.50;;;;;;;;;;5071589;28;20215;-65
2022/01/30 01:24:11;;;;;;;0.50;0.50;;;;;;;;;;5071003;28;20182;-66
2022/01/30 01:26:38;;;;;;;0.57;0.57;;;;;;;;;;5070937;28;20190;-65
2022/01/30 01:29:05;;;;;;;0.50;0.50;;;;;;;;;;5066906;28;20214;-66
2022/01/30 01:31:32;;;;;;;0.50;0.50;;;;;;;;;;5071152;28;20206;-66
2022/01/30 01:34:29;;;;;;;0.50;0.50;;;;;;;;;;5071367;28;20258;-67
2022/01/30 01:36:55;;;;;;;0.50;0.50;;;;;;;;;;5070702;28;20277;-66
2022/01/30 01:39:21;;;;;;;0.60;0.60;;;;;;;;;;5071618;28;20211;-65
2022/01/30 01:41:47;;;;;;;0.50;0.50;;;;;;;;;;5071521;28;20527;-66
2022/01/30 01:44:14;;;;;;;0.50;0.50;;;;;;;;;;5070320;28;20185;-66
2022/01/30 01:46:42;;;;;;;0.50;0.50;;;;;;;;;;5052416;28;20647;-66
2022/01/30 01:49:10;;;;;;;0.50;0.50;;;;;;;;;;5068393;28;20296;-66
2022/01/30 01:51:36;;;;;;;0.50;0.50;;;;;;;;;;5071410;28;20223;-66
2022/01/30 01:54:02;;;;;;;0.50;0.50;;;;;;;;;;5071291;28;20268;-66
2022/01/30 01:56:30;;;;;;;0.50;0.50;;;;;;;;;;5075202;28;20619;-66
2022/01/30 01:58:56;;;;;;;0.50;0.50;;;;;;;;;;5074950;28;20441;-66
2022/01/30 02:01:24;;;;;;;0.50;0.50;;;;;;;;;;5073772;28;20185;-67
2022/01/30 02:03:50;;;;;;;0.50;0.50;;;;;;;;;;5074679;28;20179;-66
2022/01/30 02:06:19;;;;;;;0.50;0.50;;;;;;;;;;5075249;28;20257;-66
2022/01/30 02:08:53;;;;;;;0.50;0.50;;;;;;;;;;5074800;28;20441;-66
2022/01/30 02:11:42;;;;;;;0.50;0.50;;;;;;;;;;5074575;28;20201;-66
2022/01/30 02:27:01;;;;;;;0.40;0.40;;;;;;;;;;5074096;28;20579;-66
2022/01/30 02:29:27;;;;;;;0.70;0.70;;;;;;;;;;5129489;22;21746;-64
2022/01/30 02:31:57;;;;;;;0.50;0.50;;;;;;;;;;5094354;28;20193;-65
2022/01/30 02:34:30;;;;;;;0.50;0.50;;;;;;;;;;5093147;28;20166;-65
2022/01/30 02:36:57;;;;;;;0.40;0.40;;;;;;;;;;5094670;28;20178;-62
2022/01/30 02:39:24;;;;;;;0.47;0.47;;;;;;;;;;5093661;28;20644;-64
2022/01/30 02:41:50;;;;;;;0.50;0.50;;;;;;;;;;5094541;28;20199;-65
2022/01/30 02:44:27;;;;;;;0.50;0.50;;;;;;;;;;5085864;28;20170;-64
2022/01/30 02:46:57;;;;;;;0.40;0.40;;;;;;;;;;5074222;28;20180;-65
2022/01/30 02:54:22;;;;;;;0.50;0.50;;;;;;;;;;5094092;28;20749;-64
2022/01/30 02:56:48;;;;;;;0.50;0.50;;;;;;;;;;5093708;28;20250;-65
2022/01/30 02:59:15;;;;;;;0.50;0.50;;;;;;;;;;5074760;28;20203;-64
2022/01/30 03:01:41;;;;;;;0.50;0.50;;;;;;;;;;5073828;28;20179;-62
2022/01/30 03:04:08;;;;;;;0.50;0.50;;;;;;;;;;5073499;28;20171;-63
2022/01/30 03:06:34;;;;;;;0.50;0.50;;;;;;;;;;5092868;28;20197;-64
2022/01/30 03:09:01;;;;;;;0.40;0.40;;;;;;;;;;5092208;28;20229;-65
2022/01/30 03:11:27;;;;;;;0.50;0.50;;;;;;;;;;5089328;28;20499;-65
2022/01/30 03:13:53;;;;;;;0.50;0.50;;;;;;;;;;5073516;28;20204;-65
2022/01/30 03:16:21;;;;;;;0.50;0.50;;;;;;;;;;5073707;28;21021;-65
2022/01/30 03:18:47;;;;;;;0.50;0.50;;;;;;;;;;5078189;28;20901;-64
2022/01/30 03:21:13;;;;;;;0.50;0.50;;;;;;;;;;5092724;28;20189;-64
2022/01/30 03:23:39;;;;;;;0.50;0.50;;;;;;;;;;5073575;28;20189;-63
2022/01/30 03:26:05;;;;;;;0.40;0.40;;;;;;;;;;5073262;28;20178;-65
2022/01/30 03:28:32;;;;;;;0.50;0.50;;;;;;;;;;5074288;28;20188;-62
2022/01/30 03:31:00;;;;;;;0.50;0.50;;;;;;;;;;5073117;28;20210;-64
2022/01/30 03:33:26;;;;;;;0.50;0.50;;;;;;;;;;5082032;28;20658;-64
2022/01/30 03:35:52;;;;;;;0.60;0.60;;;;;;;;;;5073358;28;20554;-63
2022/01/30 03:38:19;;;;;;;0.50;0.50;;;;;;;;;;5073300;28;20692;-63
2022/01/30 03:40:45;;;;;;;0.50;0.50;;;;;;;;;;5073267;28;20190;-64
2022/01/30 03:43:11;;;;;;;0.60;0.60;;;;;;;;;;5090221;28;20256;-64
2022/01/30 03:45:38;;;;;;;0.50;0.50;;;;;;;;;;5075120;28;20611;-64
2022/01/30 03:48:04;;;;;;;0.50;0.50;;;;;;;;;;5076224;28;20428;-65
2022/01/30 03:50:30;;;;;;;0.50;0.50;;;;;;;;;;5072958;28;20244;-63
2022/01/30 03:52:56;;;;;;;0.60;0.60;;;;;;;;;;5072717;28;20572;-64
2022/01/30 03:55:23;;;;;;;0.50;0.50;;;;;;;;;;5083840;28;20827;-62
2022/01/30 03:57:49;;;;;;;0.47;0.47;;;;;;;;;;5092917;28;20229;-64
2022/01/30 04:00:15;;;;;;;0.60;0.60;;;;;;;;;;5089819;28;20288;-64
2022/01/30 04:02:41;;;;;;;0.40;0.40;;;;;;;;;;5073617;28;20274;-65
2022/01/30 04:05:07;;;;;;;0.50;0.50;;;;;;;;;;5072752;28;20877;-63
2022/01/30 04:07:33;;;;;;;0.50;0.50;;;;;;;;;;5079523;28;21166;-64
2022/01/30 04:10:00;;;;;;;0.50;0.50;;;;;;;;;;5092714;28;20220;-64
2022/01/30 04:12:26;;;;;;;0.50;0.50;;;;;;;;;;5092560;28;20170;-65
2022/01/30 04:14:52;;;;;;;0.60;0.60;;;;;;;;;;5087453;28;20202;-66
2022/01/30 04:17:21;;;;;;;0.50;0.50;;;;;;;;;;5072681;28;20182;-64
2022/01/30 04:19:47;;;;;;;0.50;0.50;;;;;;;;;;5092542;28;20190;-64
2022/01/30 04:22:13;;;;;;;0.50;0.50;;;;;;;;;;5087468;28;20631;-64
2022/01/30 04:24:39;;;;;;;0.50;0.50;;;;;;;;;;5072085;28;20171;-64
2022/01/30 04:27:06;;;;;;;0.50;0.50;;;;;;;;;;5073452;28;20401;-64
2022/01/30 04:29:32;;;;;;;0.50;0.50;;;;;;;;;;5081372;28;20293;-64
2022/01/30 04:31:58;;;;;;;0.43;0.43;;;;;;;;;;5073167;28;20175;-64
2022/01/30 04:34:25;;;;;;;0.50;0.50;;;;;;;;;;5071988;28;20646;-64
2022/01/30 04:37:04;;;;;;;0.50;0.50;;;;;;;;;;5073248;28;20205;-64
2022/01/30 04:56:48;;;;;;;0.50;0.50;;;;;;;;;;5071731;28;20730;-65
2022/01/30 05:02:03;;;;;;;0.50;0.50;;;;;;;;;;5034320;28;20203;-65
2022/01/30 05:09:36;;;;;;;0.50;0.50;;;;;;;;;;5072259;28;20233;-66
2022/01/30 05:12:02;;;;;;;0.50;0.50;;;;;;;;;;5072047;28;20190;-64
2022/01/30 05:14:34;;;;;;;0.50;0.50;;;;;;;;;;5071885;28;20213;-65
2022/01/30 05:17:00;;;;;;;0.50;0.50;;;;;;;;;;5072167;28;20186;-63
2022/01/30 05:19:26;;;;;;;0.50;0.50;;;;;;;;;;5084528;28;20216;-65
2022/01/30 05:21:53;;;;;;;0.60;0.60;;;;;;;;;;5082612;28;20205;-65
2022/01/30 05:24:19;;;;;;;0.60;0.60;;;;;;;;;;5090563;28;20257;-66
2022/01/30 05:26:45;;;;;;;0.50;0.50;;;;;;;;;;5071016;28;20671;-66
2022/01/30 05:29:12;;;;;;;0.55;0.55;;;;;;;;;;5070770;28;20615;-66
2022/01/30 05:31:38;;;;;;;0.50;0.50;;;;;;;;;;5071285;28;20193;-65
2022/01/30 05:34:04;;;;;;;0.50;0.50;;;;;;;;;;5078451;28;20186;-63
2022/01/30 05:36:31;;;;;;;0.50;0.50;;;;;;;;;;5091492;28;20212;-66
2022/01/30 05:38:58;;;;;;;0.52;0.52;;;;;;;;;;5091424;28;20707;-66
2022/01/30 05:41:24;;;;;;;0.50;0.50;;;;;;;;;;5081943;28;20550;-66
2022/01/30 05:43:55;;;;;;;0.50;0.50;;;;;;;;;;5071945;28;20634;-64
2022/01/30 05:46:33;;;;;;;0.50;0.50;;;;;;;;;;5071250;28;20179;-66
2022/01/30 05:48:59;;;;;;;0.50;0.50;;;;;;;;;;5072260;28;20174;-65
2022/01/30 05:51:25;;;;;;;0.50;0.50;;;;;;;;;;5071111;28;20263;-65
2022/01/30 05:53:51;;;;;;;0.50;0.50;;;;;;;;;;5071893;28;20186;-65
2022/01/30 05:56:17;;;;;;;0.50;0.50;;;;;;;;;;5091169;28;20508;-66
2022/01/30 05:58:43;;;;;;;0.50;0.50;;;;;;;;;;5083733;28;20421;-66
2022/01/30 06:01:08;;;;;;;0.50;0.50;;;;;;;;;;5071625;28;20447;-66
2022/01/30 06:03:34;;;;;;;0.50;0.50;;;;;;;;;;5090994;28;20422;-66
2022/01/30 06:06:01;;;;;;;0.50;0.50;;;;;;;;;;5072112;28;20907;-65
2022/01/30 06:08:40;;;;;;;0.50;0.50;;;;;;;;;;5073406;28;20182;-66
2022/01/30 06:11:10;;;;;;;0.50;0.50;;;;;;;;;;5085442;28;20282;-66
2022/01/30 06:13:36;;;;;;;0.50;0.50;;;;;;;;;;5077172;28;20186;-65
2022/01/30 06:16:02;;;;;;;0.50;0.50;;;;;;;;;;5091299;28;20588;-65
2022/01/30 06:18:28;;;;;;;0.50;0.50;;;;;;;;;;5091150;28;20408;-66
2022/01/30 06:20:54;;;;;;;0.57;0.57;;;;;;;;;;5091085;28;20198;-65
2022/01/30 06:23:26;;;;;;;0.60;0.60;;;;;;;;;;5090772;28;20404;-65
2022/01/30 06:25:51;;;;;;;0.50;0.50;;;;;;;;;;5090572;28;20245;-66
2022/01/30 06:28:17;;;;;;;0.50;0.50;;;;;;;;;;5081485;28;20217;-64
2022/01/30 06:30:43;;;;;;;0.50;0.50;;;;;;;;;;5075103;28;20464;-66
2022/01/30 06:33:09;;;;;;;0.50;0.50;;;;;;;;;;5070545;28;20499;-66
2022/01/30 06:35:35;;;;;;;0.50;0.50;;;;;;;;;;5070760;28;20472;-65
2022/01/30 06:38:04;;;;;;;0.50;0.50;;;;;;;;;;5084596;28;20942;-66
2022/01/30 06:40:30;;;;;;;0.50;0.50;;;;;;;;;;5064097;28;20437;-66
2022/01/30 06:42:56;;;;;;;0.57;0.57;;;;;;;;;;5074265;28;20252;-66
2022/01/30 06:45:23;;;;;;;0.50;0.50;;;;;;;;;;5077799;28;20205;-65
2022/01/30 06:47:50;;;;;;;0.55;0.55;;;;;;;;;;5081732;28;20419;-65
2022/01/30 06:50:16;;;;;;;0.50;0.50;;;;;;;;;;5083975;28;20187;-65
2022/01/30 06:52:42;;;;;;;0.50;0.50;;;;;;;;;;5073899;28;20541;-65
2022/01/30 06:55:09;;;;;;;0.50;0.50;;;;;;;;;;5075038;28;20198;-66
2022/01/30 06:57:34;;;;;;;0.50;0.50;;;;;;;;;;5056810;28;20994;-66
2022/01/30 07:00:01;;;;;;;0.40;0.40;;;;;;;;;;5074699;28;20194;-65
2022/01/30 07:02:26;;;;;;;0.45;0.45;;;;;;;;;;5073831;28;20770;-65
2022/01/30 07:04:52;;;;;;;0.60;0.60;;;;;;;;;;5087385;28;20256;-65
2022/01/30 07:07:18;;;;;;;0.60;0.60;;;;;;;;;;5101985;28;20422;-65
2022/01/30 07:09:44;;;;;;;0.53;0.53;;;;;;;;;;5093009;28;20446;-66
2022/01/30 07:12:10;;;;;;;0.50;0.50;;;;;;;;;;5093946;28;20427;-65
2022/01/30 07:14:36;;;;;;;0.60;0.60;;;;;;;;;;5089392;28;20190;-65
2022/01/30 07:17:02;;;;;;;0.50;0.50;;;;;;;;;;5080391;28;20187;-65
2022/01/30 07:19:28;;;;;;;0.60;0.60;;;;;;;;;;5078030;28;20455;-64
2022/01/30 07:21:54;;;;;;;0.50;0.50;;;;;;;;;;5066828;28;20434;-63
2022/01/30 07:24:20;;;;;;;0.43;0.43;;;;;;;;;;5058481;28;20433;-63
2022/01/30 07:26:46;;;;;;;0.50;0.50;;;;;;;;;;5079852;28;20203;-65
2022/01/30 07:29:12;;;;;;;0.50;0.50;;;;;;;;;;5085030;28;20173;-66
2022/01/30 07:31:38;;;;;;;0.60;0.60;;;;;;;;;;5077581;28;20777;-64
2022/01/30 07:34:04;;;;;;;0.50;0.50;;;;;;;;;;5090111;28;20178;-63
2022/01/30 07:36:33;;;;;;;0.60;0.60;;;;;;;;;;5090186;28;20208;-63
2022/01/30 07:39:00;;;;;;;0.60;0.60;;;;;;;;;;5084412;28;20849;-66
2022/01/30 07:41:26;;;;;;;0.50;0.50;;;;;;;;;;5088529;28;20277;-63
2022/01/30 07:43:52;;;;;;;0.50;0.50;;;;;;;;;;5061263;28;20246;-64
2022/01/30 07:46:18;;;;;;;0.50;0.50;;;;;;;;;;5078232;28;20185;-64
2022/01/30 07:48:44;;;;;;;0.50;0.50;;;;;;;;;;5086020;28;20419;-67
2022/01/30 07:51:10;;;;;;;0.60;0.60;;;;;;;;;;5083921;28;20982;-65
2022/01/30 07:53:36;;;;;;;0.60;0.60;;;;;;;;;;5073830;28;20965;-60
2022/01/30 07:56:02;;;;;;;0.60;0.60;;;;;;;;;;5071884;28;20468;-61
2022/01/30 07:58:28;;;;;;;0.60;0.60;;;;;;;;;;5074667;28;20656;-63
2022/01/30 08:00:54;;;;;;;0.57;0.57;;;;;;;;;;5089938;28;20234;-66
2022/01/30 08:03:20;;;;;;;0.60;0.60;;;;;;;;;;5073896;28;20213;-64
2022/01/30 08:05:46;;;;;;;0.60;0.60;;;;;;;;;;5084128;28;20491;-64
2022/01/30 08:08:12;;;;;;;0.60;0.60;;;;;;;;;;5074131;28;20660;-64
2022/01/30 08:10:38;;;;;;;0.50;0.50;;;;;;;;;;5080016;28;20566;-63
2022/01/30 08:13:04;;;;;;;0.50;0.50;;;;;;;;;;5078173;28;20205;-65
2022/01/30 08:15:30;;;;;;;0.50;0.50;;;;;;;;;;5085796;28;20457;-62
2022/01/30 08:17:56;;;;;;;0.60;0.60;;;;;;;;;;5084312;28;20175;-64
2022/01/30 08:20:25;;;;;;;0.50;0.50;;;;;;;;;;5086770;28;20946;-65
2022/01/30 08:22:52;;;;;;;0.50;0.50;;;;;;;;;;5074907;28;20429;-64
2022/01/30 08:25:19;;;;;;;0.50;0.50;;;;;;;;;;5086199;28;20177;-65
2022/01/30 08:27:45;;;;;;;0.50;0.50;;;;;;;;;;5078900;28;20192;-64
2022/01/30 08:32:40;;;;;;;0.50;0.50;;;;;;;;;;5086062;28;20296;-65
2022/01/30 08:35:07;;;;;;;0.50;0.50;;;;;;;;;;5090875;28;20214;-62
2022/01/30 08:37:35;;;;;;;0.60;0.60;;;;;;;;;;5092104;28;20182;-65
2022/01/30 08:40:01;;;;;;;0.50;0.50;;;;;;;;;;5091447;28;20177;-62
2022/01/30 08:42:28;;;;;;;0.40;0.40;;;;;;;;;;5069436;28;20195;-62
2022/01/30 08:44:54;;;;;;;0.50;0.50;;;;;;;;;;5072385;28;20545;-63
2022/01/30 08:47:20;;;;;;;0.50;0.50;;;;;;;;;;5072974;28;20171;-64
2022/01/30 08:49:46;;;;;;;0.50;0.50;;;;;;;;;;5053030;28;20420;-63
2022/01/30 08:52:16;;;;;;;0.60;0.60;;;;;;;;;;5070322;28;20686;-64
2022/01/30 08:54:42;;;;;;;0.60;0.60;;;;;;;;;;5076699;28;20450;-64
2022/01/30 08:57:08;;;;;;;0.60;0.60;;;;;;;;;;5070373;28;20205;-64
2022/01/30 08:59:34;;;;;;;0.60;0.60;;;;;;;;;;5069407;28;20309;-63
2022/01/30 09:02:00;;;;;;;0.50;0.50;;;;;;;;;;5070714;28;20919;-64
2022/01/30 09:04:26;;;;;;;0.50;0.50;;;;;;;;;;5067395;28;20186;-63
2022/01/30 09:06:51;;;;;;;0.57;0.57;;;;;;;;;;5062876;28;21161;-64
2022/01/30 09:09:17;;;;;;;0.70;0.70;;;;;;;;;;5062597;28;20416;-63
2022/01/30 09:11:43;;;;;;;0.50;0.50;;;;;;;;;;5071129;28;20490;-64
2022/01/30 09:14:11;;;;;;;0.60;0.60;;;;;;;;;;5070183;28;20419;-63
2022/01/30 09:16:37;;;;;;;0.57;0.57;;;;;;;;;;5070636;28;20471;-63
2022/01/30 09:19:03;;;;;;;0.57;0.57;;;;;;;;;;5068927;28;20190;-64
2022/01/30 09:21:29;;;;;;;0.50;0.50;;;;;;;;;;5067806;28;20488;-63
2022/01/30 09:23:55;;;;;;;0.60;0.60;;;;;;;;;;5070039;28;20454;-64
2022/01/30 09:26:21;;;;;;;0.50;0.50;;;;;;;;;;5062819;28;20184;-64
2022/01/30 09:28:47;;;;;;;0.50;0.50;;;;;;;;;;5064073;28;20182;-63
2022/01/30 09:31:13;;;;;;;0.50;0.50;;;;;;;;;;5070479;28;20986;-63
2022/01/30 09:33:39;;;;;;;0.50;0.50;;;;;;;;;;5070753;28;20443;-64
2022/01/30 09:36:05;;;;;;;0.50;0.50;;;;;;;;;;5070892;28;20475;-63
2022/01/30 09:38:31;;;;;;;0.50;0.50;;;;;;;;;;5068809;28;20178;-63
2022/01/30 09:40:58;;;;;;;0.60;0.60;;;;;;;;;;5067050;28;20205;-63
2022/01/30 09:43:24;;;;;;;0.50;0.50;;;;;;;;;;5063304;28;20186;-64
2022/01/30 09:45:51;;;;;;;0.50;0.50;;;;;;;;;;5069915;28;20189;-64
2022/01/30 09:48:22;;;;;;;0.50;0.50;;;;;;;;;;5070777;28;20186;-61
2022/01/30 09:50:48;;;;;;;0.50;0.50;;;;;;;;;;5071122;28;20685;-64
2022/01/30 09:53:14;;;;;;;0.60;0.60;;;;;;;;;;5070549;28;20265;-64
2022/01/30 09:55:40;;;;;;;0.50;0.50;;;;;;;;;;5071188;28;20270;-64
2022/01/30 09:58:07;;;;;;;0.50;0.50;;;;;;;;;;5071155;28;20394;-64
2022/01/30 10:00:33;;;;;;;0.50;0.50;;;;;;;;;;5070518;28;20968;-64
2022/01/30 10:02:59;;;;;;;0.50;0.50;;;;;;;;;;5069700;28;20592;-64
2022/01/30 10:05:28;;;;;;;0.50;0.50;;;;;;;;;;5068427;28;20183;-64
2022/01/30 10:07:56;;;;;;;0.60;0.60;;;;;;;;;;5068130;28;20420;-64
2022/01/30 10:10:26;;;;;;;0.50;0.50;;;;;;;;;;5064543;28;20172;-63
2022/01/30 10:13:01;;;;;;;0.60;0.60;;;;;;;;;;5069395;28;20182;-63
2022/01/30 10:15:27;;;;;;;0.50;0.50;;;;;;;;;;5068597;28;20652;-63
2022/01/30 10:17:53;;;;;;;0.50;0.50;;;;;;;;;;5053369;28;20179;-62
2022/01/30 10:20:25;;;;;;;0.50;0.50;;;;;;;;;;5054826;28;20172;-62
2022/01/30 10:22:53;;;;;;;0.40;0.40;;;;;;;;;;5061371;28;20431;-63
2022/01/30 10:25:21;;;;;;;0.50;0.50;;;;;;;;;;5072864;28;20186;-63
2022/01/30 10:27:47;;;;;;;0.50;0.50;;;;;;;;;;5063288;28;20712;-63
2022/01/30 10:30:19;;;;;;;0.50;0.50;;;;;;;;;;5073702;28;20182;-63
2022/01/30 10:32:54;;;;;;;0.50;0.50;;;;;;;;;;5073040;28;20485;-63
2022/01/30 10:35:20;;;;;;;0.50;0.50;;;;;;;;;;5073264;28;20201;-63
2022/01/30 10:37:46;;;;;;;0.60;0.60;;;;;;;;;;5067977;28;20182;-63
2022/01/30 10:40:27;;;;;;;0.50;0.50;;;;;;;;;;5070838;28;20930;-62
2022/01/30 10:42:53;;;;;;;0.50;0.50;;;;;;;;;;5071344;28;20657;-62
2022/01/30 10:45:19;;;;;;;0.60;0.60;;;;;;;;;;5069725;28;20189;-63
2022/01/30 10:47:46;;;;;;;0.50;0.50;;;;;;;;;;5070513;28;20434;-63
2022/01/30 10:50:14;;;;;;;0.50;0.50;;;;;;;;;;5071089;28;20448;-63
2022/01/30 10:52:58;;;;;;;0.50;0.50;;;;;;;;;;5071557;28;20241;-63
2022/01/30 10:55:34;;;;;;;0.50;0.50;;;;;;;;;;5072583;28;20728;-63
2022/01/30 10:58:01;;;;;;;0.50;0.50;;;;;;;;;;5073399;28;20277;-63
2022/01/30 11:00:41;;;;;;;0.50;0.50;;;;;;;;;;5052100;28;20209;-63
2022/01/30 11:03:08;;;;;;;0.40;0.40;;;;;;;;;;5070966;28;20189;-63
2022/01/30 11:05:51;;;;;;;0.50;0.50;;;;;;;;;;5071351;28;20275;-63
2022/01/30 11:08:22;;;;;;;0.60;0.60;;;;;;;;;;5073023;28;20190;-63
2022/01/30 11:10:58;;;;;;;0.60;0.60;;;;;;;;;;5073437;28;20194;-63
2022/01/30 11:13:32;;;;;;;0.50;0.50;;;;;;;;;;5069640;28;20261;-63
2022/01/30 11:16:55;;;;;;;0.50;0.50;;;;;;;;;;5058489;28;20241;-63
2022/01/30 11:18:44;;;;;;;0.43;0.43;;;;;;;;;;5072719;28;20194;-63
2022/01/30 11:21:10;;;;;;;0.50;0.50;;;;;;;;;;5073203;28;20199;-63
2022/01/30 11:23:38;;;;;;;0.50;0.50;;;;;;;;;;5054782;28;20542;-63
2022/01/30 11:26:04;;;;;;;0.50;0.50;;;;;;;;;;5059102;28;20661;-64
2022/01/30 11:28:30;;;;;;;0.50;0.50;;;;;;;;;;5071680;28;20577;-63
2022/01/30 11:30:56;;;;;;;0.50;0.50;;;;;;;;;;5062944;28;20219;-62
2022/01/30 11:33:22;;;;;;;0.40;0.40;;;;;;;;;;5072336;28;20181;-62
2022/01/30 11:35:49;;;;;;;0.50;0.50;;;;;;;;;;5072428;28;20569;-61
2022/01/30 11:38:15;;;;;;;0.60;0.60;;;;;;;;;;5072058;28;20179;-64
2022/01/30 11:40:41;;;;;;;0.40;0.40;;;;;;;;;;5072084;28;20197;-64
2022/01/30 11:43:10;;;;;;;0.40;0.40;;;;;;;;;;5054955;28;20463;-64
2022/01/30 11:45:36;;;;;;;0.40;0.40;;;;;;;;;;5070976;28;20472;-64
2022/01/30 11:48:13;;;;;;;0.40;0.40;;;;;;;;;;5063705;28;20423;-64
2022/01/30 11:50:39;;;;;;;0.40;0.40;;;;;;;;;;5072521;28;20203;-63
2022/01/30 11:53:06;;;;;;;0.40;0.40;;;;;;;;;;5070685;28;20430;-64
2022/01/30 11:55:48;;;;;;;0.40;0.40;;;;;;;;;;5071695;28;20459;-63
2022/01/30 11:58:35;;;;;;;0.40;0.40;;;;;;;;;;5072195;28;20420;-63
2022/01/30 12:01:03;;;;;;;0.40;0.40;;;;;;;;;;5071551;28;20535;-64
2022/01/30 12:03:35;;;;;;;0.40;0.40;;;;;;;;;;5071671;28;20410;-61
2022/01/30 12:06:19;;;;;;;0.40;0.40;;;;;;;;;;5071519;28;20422;-63
2022/01/30 12:08:49;;;;;;;0.40;0.40;;;;;;;;;;5060318;28;20512;-63
2022/01/30 12:11:50;;;;;;;0.40;0.40;;;;;;;;;;5069848;28;20235;-63
2022/01/30 12:14:22;;;;;;;0.40;0.40;;;;;;;;;;5072259;28;20467;-63
2022/01/30 12:16:52;;;;;;;0.50;0.50;;;;;;;;;;5070856;28;20203;-63
2022/01/30 12:19:39;;;;;;;0.50;0.50;;;;;;;;;;5056688;28;20179;-63
2022/01/30 12:22:17;;;;;;;0.50;0.50;;;;;;;;;;5059103;28;20269;-63
2022/01/30 12:24:44;;;;;;;0.50;0.50;;;;;;;;;;5051805;28;20186;-64
2022/01/30 12:27:10;;;;;;;0.50;0.50;;;;;;;;;;5068036;28;20206;-63
2022/01/30 12:29:41;;;;;;;0.50;0.50;;;;;;;;;;5070082;28;20184;-63
2022/01/30 12:32:16;;;;;;;0.40;0.40;;;;;;;;;;5070048;28;20290;-63
2022/01/30 12:34:42;;;;;;;0.40;0.40;;;;;;;;;;5068444;28;20179;-63
2022/01/30 12:37:09;;;;;;;0.50;0.50;;;;;;;;;;5067070;28;20217;-63
2022/01/30 12:39:35;;;;;;;0.50;0.50;;;;;;;;;;5070751;28;20525;-64
2022/01/30 12:42:01;;;;;;;0.40;0.40;;;;;;;;;;5069728;28;20373;-63
2022/01/30 12:44:30;;;;;;;0.50;0.50;;;;;;;;;;5070060;28;20786;-63
2022/01/30 12:46:56;;;;;;;0.50;0.50;;;;;;;;;;5070206;28;20456;-64
2022/01/30 12:49:22;;;;;;;0.60;0.60;;;;;;;;;;5071085;28;20547;-64
2022/01/30 12:51:52;;;;;;;0.40;0.40;;;;;;;;;;5071570;28;20960;-64
2022/01/30 12:54:20;;;;;;;0.50;0.50;;;;;;;;;;5071330;28;20171;-64
2022/01/30 12:56:47;;;;;;;0.50;0.50;;;;;;;;;;5073132;28;20207;-64
2022/01/30 12:59:13;;;;;;;0.50;0.50;;;;;;;;;;5071188;28;20175;-64
2022/01/30 13:01:41;;;;;;;0.40;0.40;;;;;;;;;;5070595;28;20187;-64
2022/01/30 13:04:09;;;;;;;0.50;0.50;;;;;;;;;;5064172;28;20207;-65
2022/01/30 13:06:38;;;;;;;0.50;0.50;;;;;;;;;;5069433;28;20190;-64
2022/01/30 13:09:04;;;;;;;0.50;0.50;;;;;;;;;;5070143;28;20175;-64
2022/01/30 13:11:30;;;;;;;0.50;0.50;;;;;;;;;;5069411;28;20345;-64
2022/01/30 13:13:58;;;;;;;0.50;0.50;;;;;;;;;;5070633;28;20305;-64
2022/01/30 13:16:28;;;;;;;0.50;0.50;;;;;;;;;;5052953;28;20190;-64
2022/01/30 13:18:54;;;;;;;0.40;0.40;;;;;;;;;;5069899;28;20262;-64
2022/01/30 13:21:24;;;;;;;0.50;0.50;;;;;;;;;;5070249;28;20736;-65
2022/01/30 13:23:50;;;;;;;0.50;0.50;;;;;;;;;;5070244;28;20186;-64
2022/01/30 13:26:28;;;;;;;0.50;0.50;;;;;;;;;;5070943;28;20183;-65
2022/01/30 13:28:54;;;;;;;0.50;0.50;;;;;;;;;;5074179;28;20920;-65
2022/01/30 13:31:20;;;;;;;0.50;0.50;;;;;;;;;;5070035;28;20260;-65
2022/01/30 13:33:46;;;;;;;0.50;0.50;;;;;;;;;;5071073;28;20413;-64
2022/01/30 13:36:22;;;;;;;0.50;0.50;;;;;;;;;;5070810;28;20241;-64
2022/01/30 13:38:48;;;;;;;0.40;0.40;;;;;;;;;;5078751;28;20416;-64
2022/01/30 13:41:26;;;;;;;0.50;0.50;;;;;;;;;;5070999;28;20743;-64
2022/01/30 13:43:57;;;;;;;0.50;0.50;;;;;;;;;;5046381;28;20484;-64
2022/01/30 13:49:11;;;;;;;0.60;0.60;;;;;;;;;;5054312;28;20190;-65
2022/01/30 13:51:37;;;;;;;0.50;0.50;;;;;;;;;;5072970;28;20199;-64
2022/01/30 13:54:10;;;;;;;0.40;0.40;;;;;;;;;;5065148;28;20229;-64
2022/01/30 13:56:37;;;;;;;0.43;0.43;;;;;;;;;;5074530;28;20516;-64
2022/01/30 13:59:03;;;;;;;0.50;0.50;;;;;;;;;;5074819;28;20172;-64
2022/01/30 14:01:33;;;;;;;0.50;0.50;;;;;;;;;;5074297;28;20197;-64
2022/01/30 14:04:11;;;;;;;0.50;0.50;;;;;;;;;;5074239;28;20508;-64
2022/01/30 14:06:37;;;;;;;0.50;0.50;;;;;;;;;;5072605;28;20529;-65
2022/01/30 14:09:04;;;;;;;0.40;0.40;;;;;;;;;;5074394;28;20254;-64
2022/01/30 14:11:35;;;;;;;0.50;0.50;;;;;;;;;;5074022;28;20199;-64
2022/01/30 14:14:06;;;;;;;0.50;0.50;;;;;;;;;;5074291;28;20170;-64
2022/01/30 14:16:36;;;;;;;0.60;0.60;;;;;;;;;;5071498;28;20209;-65
2022/01/30 14:19:03;;;;;;;0.50;0.50;;;;;;;;;;5074363;28;20175;-64
2022/01/30 14:21:31;;;;;;;0.50;0.50;;;;;;;;;;5073863;28;20710;-63
2022/01/30 14:23:57;;;;;;;0.50;0.50;;;;;;;;;;5064504;28;20190;-64
2022/01/30 14:26:30;;;;;;;0.60;0.60;;;;;;;;;;5055477;28;20655;-64
2022/01/30 14:29:08;;;;;;;0.40;0.40;;;;;;;;;;5074536;28;20764;-64
2022/01/30 14:31:34;;;;;;;0.50;0.50;;;;;;;;;;5079689;23;20661;-66
2022/01/30 14:34:00;;;;;;;0.50;0.50;;;;;;;;;;5073749;28;20187;-66
2022/01/30 14:36:29;;;;;;;0.50;0.50;;;;;;;;;;5071319;28;20468;-66
2022/01/30 14:38:55;;;;;;;0.50;0.50;;;;;;;;;;5056051;28;20444;-66
2022/01/30 14:41:21;;;;;;;0.50;0.50;;;;;;;;;;5074335;28;20159;-67
2022/01/30 14:43:47;;;;;;;0.50;0.50;;;;;;;;;;5056028;28;20183;-66
2022/01/30 14:46:14;;;;;;;0.50;0.50;;;;;;;;;;5074173;28;20413;-65
2022/01/30 14:48:40;;;;;;;0.50;0.50;;;;;;;;;;5069035;28;20413;-66
2022/01/30 14:51:07;;;;;;;0.55;0.55;;;;;;;;;;5054277;28;20172;-66
2022/01/30 14:53:33;;;;;;;0.50;0.50;;;;;;;;;;5053888;28;20649;-66
2022/01/30 14:55:59;;;;;;;0.50;0.50;;;;;;;;;;5040578;28;20201;-65
2022/01/30 14:58:25;;;;;;;0.40;0.40;;;;;;;;;;5067344;28;20275;-66
2022/01/30 15:00:55;;;;;;;0.47;0.47;;;;;;;;;;5059664;28;20430;-66
2022/01/30 15:03:21;;;;;;;0.50;0.50;;;;;;;;;;5052771;28;20425;-66
2022/01/30 15:05:47;;;;;;;0.50;0.50;;;;;;;;;;5053963;28;20547;-66
2022/01/30 15:08:13;;;;;;;0.50;0.50;;;;;;;;;;5053817;28;20212;-66
2022/01/30 15:10:39;;;;;;;0.50;0.50;;;;;;;;;;5035940;28;20496;-66
2022/01/30 15:13:11;;;;;;;0.40;0.40;;;;;;;;;;5035652;28;20449;-67
2022/01/30 15:15:38;;;;;;;0.50;0.50;;;;;;;;;;5055084;28;20199;-66
2022/01/30 15:18:12;;;;;;;0.50;0.50;;;;;;;;;;5073763;28;20173;-66
2022/01/30 15:20:38;;;;;;;0.60;0.60;;;;;;;;;;5073760;28;20171;-66
2022/01/30 15:23:04;;;;;;;0.50;0.50;;;;;;;;;;5073242;28;20270;-66
2022/01/30 15:25:30;;;;;;;0.50;0.50;;;;;;;;;;5073247;28;20206;-66
2022/01/30 15:27:56;;;;;;;0.50;0.50;;;;;;;;;;5073118;28;20179;-67
2022/01/30 15:30:22;;;;;;;0.60;0.60;;;;;;;;;;5073611;28;20186;-66
2022/01/30 15:32:48;;;;;;;0.50;0.50;;;;;;;;;;5073184;28;20207;-66
2022/01/30 15:35:14;;;;;;;0.50;0.50;;;;;;;;;;5073438;28;20406;-66
2022/01/30 15:37:40;;;;;;;0.60;0.60;;;;;;;;;;5072685;28;20657;-67
2022/01/30 15:40:06;;;;;;;0.50;0.50;;;;;;;;;;5073159;28;20396;-67
2022/01/30 15:42:32;;;;;;;0.60;0.60;;;;;;;;;;5072691;28;20792;-66
2022/01/30 15:50:09;;;;;;;0.50;0.50;;;;;;;;;;5052604;28;20197;-65
2022/01/30 15:52:35;;;;;;;0.50;0.50;;;;;;;;;;5052552;28;20202;-65
2022/01/30 15:55:01;;;;;;;0.60;0.60;;;;;;;;;;5053058;28;20538;-65